Time;durP1;ratioP1;P1;durP2;ratioP2;P2;SDS_P1;SDS_P2;PMS_P1;PMS_P2;Temp;Humidity;BMP_temperature;BMP_pressure;BME280_temperature;BME280_humidity;BME280_pressure;Samples;Min_cycle;Max_cycle;Signal;HPM_P1;HPM_P2
2023/11/04 00:00:33;;;;;;;7.70;2.28;;;7.80;99.90;;;;;;5004813;28;20032;-62
2023/11/04 00:02:59;;;;;;;9.77;2.70;;;7.80;99.90;;;;;;5008757;28;20077;-61
2023/11/04 00:05:24;;;;;;;16.85;4.60;;;7.70;99.90;;;;;;5008766;28;20038;-62
2023/11/04 00:07:51;;;;;;;15.80;2.83;;;7.70;99.90;;;;;;5009141;28;20068;-61
2023/11/04 00:10:16;;;;;;;8.80;2.28;;;7.70;99.90;;;;;;5008893;28;20026;-62
2023/11/04 00:12:42;;;;;;;12.73;2.83;;;7.70;99.90;;;;;;4995058;28;20038;-61
2023/11/04 00:15:08;;;;;;;12.15;2.53;;;7.70;99.90;;;;;;4988848;28;20026;-62
2023/11/04 00:17:33;;;;;;;13.00;2.50;;;7.70;99.90;;;;;;4989296;28;20065;-62
2023/11/04 00:19:59;;;;;;;8.63;2.38;;;7.70;99.90;;;;;;4994264;28;20030;-62
2023/11/04 00:22:24;;;;;;;7.50;2.47;;;7.70;99.90;;;;;;5002295;28;20127;-63
2023/11/04 00:24:53;;;;;;;12.18;2.42;;;7.70;99.90;;;;;;4999090;28;20563;-62
2023/11/04 00:27:19;;;;;;;10.10;2.30;;;7.70;99.90;;;;;;4997753;28;20021;-63
2023/11/04 00:29:45;;;;;;;14.38;2.50;;;7.70;99.90;;;;;;4999329;28;20022;-62
2023/11/04 00:32:10;;;;;;;14.45;2.70;;;7.70;99.90;;;;;;4995880;28;20023;-62
2023/11/04 00:34:36;;;;;;;13.80;2.65;;;7.60;99.90;;;;;;4998775;28;20624;-63
2023/11/04 00:37:01;;;;;;;9.38;2.60;;;7.60;99.90;;;;;;5000363;28;20026;-62
2023/11/04 00:39:27;;;;;;;9.93;2.30;;;7.60;99.90;;;;;;5004226;28;20026;-62
2023/11/04 00:41:53;;;;;;;8.45;2.47;;;7.60;99.90;;;;;;4999000;28;20101;-62
2023/11/04 00:44:18;;;;;;;10.93;2.72;;;7.60;99.90;;;;;;4997128;28;20408;-62
2023/11/04 00:46:44;;;;;;;6.70;2.35;;;7.60;99.90;;;;;;5002222;28;20645;-61
2023/11/04 00:49:10;;;;;;;10.98;2.30;;;7.60;99.90;;;;;;5001587;28;20031;-61
2023/11/04 00:51:36;;;;;;;8.45;2.75;;;7.50;99.90;;;;;;5000379;28;20077;-61
2023/11/04 00:54:03;;;;;;;10.27;2.40;;;7.50;99.90;;;;;;5004431;28;20022;-61
2023/11/04 00:56:29;;;;;;;10.23;3.00;;;7.50;99.90;;;;;;5000637;28;20037;-61
2023/11/04 00:58:54;;;;;;;7.65;1.85;;;7.50;99.90;;;;;;5003207;28;20064;-61
2023/11/04 01:01:21;;;;;;;12.43;3.40;;;7.50;99.90;;;;;;5003450;28;20014;-61
2023/11/04 01:03:46;;;;;;;10.20;2.55;;;7.40;99.90;;;;;;5004751;28;20014;-62
2023/11/04 01:06:12;;;;;;;9.57;2.55;;;7.40;99.90;;;;;;5011421;28;20525;-61
2023/11/04 01:08:38;;;;;;;7.78;2.13;;;7.40;99.90;;;;;;5011614;28;20377;-62
2023/11/04 01:11:04;;;;;;;10.73;2.85;;;7.40;99.90;;;;;;5011656;28;20030;-61
2023/11/04 01:13:29;;;;;;;9.02;3.00;;;7.30;99.90;;;;;;5012140;28;20083;-62
2023/11/04 01:15:55;;;;;;;10.93;2.55;;;7.30;99.90;;;;;;5011274;28;20145;-61
2023/11/04 01:18:21;;;;;;;12.52;2.85;;;7.30;99.90;;;;;;5011520;28;20026;-62
2023/11/04 01:20:46;;;;;;;13.93;2.88;;;7.30;99.90;;;;;;5011806;28;20403;-61
2023/11/04 01:23:12;;;;;;;9.93;3.03;;;7.30;99.90;;;;;;5011333;28;20105;-62
2023/11/04 01:25:38;;;;;;;10.27;3.05;;;7.20;99.90;;;;;;5010921;28;20036;-62
2023/11/04 01:28:03;;;;;;;8.65;2.90;;;7.20;99.90;;;;;;5011420;28;20034;-62
2023/11/04 01:30:29;;;;;;;10.07;2.83;;;7.20;99.90;;;;;;5011908;28;20110;-62
2023/11/04 01:32:54;;;;;;;5.68;2.67;;;7.10;99.90;;;;;;5006916;28;20027;-62
2023/11/04 01:35:20;;;;;;;8.23;2.78;;;7.10;99.90;;;;;;5010142;28;20480;-62
2023/11/04 01:37:45;;;;;;;8.57;2.47;;;7.10;99.90;;;;;;5006711;28;20081;-62
2023/11/04 01:40:12;;;;;;;8.60;2.67;;;7.10;99.90;;;;;;5009631;28;20018;-62
2023/11/04 01:42:44;;;;;;;15.15;3.38;;;7.10;99.90;;;;;;5011303;28;20034;-63
2023/11/04 01:45:10;;;;;;;7.82;2.47;;;7.10;99.90;;;;;;5010731;28;20069;-62
2023/11/04 01:47:39;;;;;;;15.30;3.72;;;7.00;99.90;;;;;;5011068;28;20104;-62
2023/11/04 01:50:05;;;;;;;11.90;2.60;;;7.00;99.90;;;;;;5010350;28;20026;-62
2023/11/04 01:52:31;;;;;;;8.23;2.30;;;6.90;99.90;;;;;;5011021;28;20038;-63
2023/11/04 01:54:58;;;;;;;6.13;2.05;;;6.90;99.90;;;;;;5010313;28;20056;-62
2023/11/04 01:57:23;;;;;;;8.95;2.08;;;6.90;99.90;;;;;;5010704;28;20018;-63
2023/11/04 01:59:49;;;;;;;9.07;2.88;;;6.90;99.90;;;;;;5010958;28;20030;-62
2023/11/04 02:02:17;;;;;;;5.65;2.30;;;6.90;99.90;;;;;;5011292;28;20034;-62
2023/11/04 02:04:43;;;;;;;13.07;2.38;;;6.90;99.90;;;;;;5010603;28;20087;-62
2023/11/04 02:07:08;;;;;;;13.43;2.88;;;6.90;99.90;;;;;;5010056;28;20038;-63
2023/11/04 02:09:34;;;;;;;8.98;2.42;;;6.80;99.90;;;;;;5010548;28;20026;-63
2023/11/04 02:11:59;;;;;;;14.15;2.25;;;6.80;99.90;;;;;;5005776;28;20026;-62
2023/11/04 02:14:25;;;;;;;18.80;3.28;;;6.80;99.90;;;;;;5010103;28;20029;-62
2023/11/04 02:16:52;;;;;;;21.83;2.72;;;6.70;99.90;;;;;;5010663;28;20115;-62
2023/11/04 02:19:18;;;;;;;9.88;2.30;;;6.70;99.90;;;;;;5010386;28;20491;-62
2023/11/04 02:21:44;;;;;;;5.68;2.10;;;6.70;99.90;;;;;;5010708;28;20026;-62
2023/11/04 02:24:09;;;;;;;12.40;2.15;;;6.70;99.90;;;;;;5010174;28;20030;-62
2023/11/04 02:26:35;;;;;;;7.97;2.42;;;6.70;99.90;;;;;;5010374;28;20037;-62
2023/11/04 02:29:00;;;;;;;6.70;1.90;;;6.60;99.90;;;;;;5010213;28;20034;-62
2023/11/04 02:31:26;;;;;;;8.05;2.20;;;6.60;99.90;;;;;;5010159;28;20084;-62
2023/11/04 02:33:51;;;;;;;10.57;3.08;;;6.60;99.90;;;;;;5009978;28;20026;-62
2023/11/04 02:36:17;;;;;;;10.55;2.70;;;6.60;99.90;;;;;;5007936;28;20045;-62
2023/11/04 02:38:42;;;;;;;10.60;2.60;;;6.60;99.90;;;;;;5007540;28;20061;-62
2023/11/04 02:41:08;;;;;;;11.52;2.00;;;6.60;99.90;;;;;;5008057;28;20443;-62
2023/11/04 02:43:34;;;;;;;7.32;2.10;;;6.60;99.90;;;;;;5005320;28;20026;-62
2023/11/04 02:45:59;;;;;;;8.52;2.38;;;6.60;99.90;;;;;;5006307;28;20046;-62
2023/11/04 02:48:25;;;;;;;13.80;2.33;;;6.50;99.90;;;;;;5010207;28;20234;-62
2023/11/04 02:50:50;;;;;;;9.90;2.05;;;6.60;99.90;;;;;;5009625;28;20360;-63
2023/11/04 02:53:16;;;;;;;13.25;2.20;;;6.60;99.90;;;;;;5009778;28;20061;-63
2023/11/04 02:55:42;;;;;;;7.65;2.03;;;6.60;99.90;;;;;;5009380;28;20096;-63
2023/11/04 02:58:08;;;;;;;9.40;2.10;;;6.60;99.90;;;;;;5009579;28;20021;-63
2023/11/04 03:00:34;;;;;;;8.77;1.90;;;6.60;99.90;;;;;;5008991;28;20045;-62
2023/11/04 03:02:59;;;;;;;14.23;2.33;;;6.60;99.90;;;;;;5009738;28;20030;-62
2023/11/04 03:05:25;;;;;;;7.75;1.85;;;6.60;99.90;;;;;;5009380;28;20026;-63
2023/11/04 03:07:50;;;;;;;6.68;1.63;;;6.60;99.90;;;;;;5005326;28;20526;-62
2023/11/04 03:10:16;;;;;;;4.50;1.92;;;6.60;99.90;;;;;;5008715;28;20053;-62
2023/11/04 03:12:41;;;;;;;15.00;2.00;;;6.60;99.90;;;;;;5010063;28;20026;-63
2023/11/04 03:15:07;;;;;;;10.60;2.78;;;6.60;99.90;;;;;;5009299;28;20025;-62
2023/11/04 03:17:33;;;;;;;11.40;2.05;;;6.60;99.90;;;;;;5009689;28;20075;-62
2023/11/04 03:19:58;;;;;;;6.95;1.90;;;6.60;99.90;;;;;;5009598;28;20034;-66
2023/11/04 03:22:24;;;;;;;9.93;2.08;;;6.60;99.90;;;;;;5001490;28;20024;-65
2023/11/04 03:24:49;;;;;;;6.72;1.95;;;6.60;99.90;;;;;;5009036;28;20052;-62
2023/11/04 03:27:15;;;;;;;14.77;2.30;;;6.60;99.90;;;;;;5009637;28;20399;-62
2023/11/04 03:29:41;;;;;;;11.55;1.88;;;6.60;99.90;;;;;;5005015;28;20030;-62
2023/11/04 03:32:08;;;;;;;10.15;1.70;;;6.60;99.90;;;;;;5006920;28;20037;-62
2023/11/04 03:34:33;;;;;;;7.07;2.13;;;6.60;99.90;;;;;;5008819;28;20025;-62
2023/11/04 03:37:02;;;;;;;5.15;2.00;;;6.70;99.90;;;;;;5004762;28;20101;-62
2023/11/04 03:39:29;;;;;;;7.63;1.92;;;6.70;99.90;;;;;;5004905;28;20038;-62
2023/11/04 03:41:54;;;;;;;4.80;1.80;;;6.70;99.90;;;;;;5005610;28;20026;-63
2023/11/04 03:44:20;;;;;;;6.30;1.92;;;6.70;99.90;;;;;;5008762;28;20061;-62
2023/11/04 03:46:45;;;;;;;12.52;1.88;;;6.70;99.90;;;;;;5009409;28;20072;-62
2023/11/04 03:49:11;;;;;;;7.72;1.75;;;6.70;99.90;;;;;;5009319;28;20034;-62
2023/11/04 03:51:36;;;;;;;7.32;1.88;;;6.70;99.90;;;;;;5004541;28;20447;-62
2023/11/04 03:54:02;;;;;;;10.50;1.85;;;6.70;99.90;;;;;;5005973;28;20511;-62
2023/11/04 03:56:28;;;;;;;5.70;1.90;;;6.80;99.90;;;;;;5009704;28;20033;-62
2023/11/04 03:58:53;;;;;;;10.02;1.77;;;6.80;99.90;;;;;;5009496;28;20022;-62
2023/11/04 04:01:19;;;;;;;11.73;2.22;;;6.80;99.90;;;;;;5009737;28;20491;-62
2023/11/04 04:03:45;;;;;;;7.38;1.52;;;6.80;99.90;;;;;;5009141;28;20383;-62
2023/11/04 04:06:11;;;;;;;4.18;1.63;;;6.80;99.90;;;;;;5009004;28;20614;-63
2023/11/04 04:08:36;;;;;;;6.20;2.17;;;6.80;99.90;;;;;;5009410;28;20419;-62
2023/11/04 04:11:02;;;;;;;7.82;1.50;;;6.80;99.90;;;;;;5005035;28;20029;-62
2023/11/04 04:13:28;;;;;;;6.72;1.70;;;6.80;99.90;;;;;;5012707;28;20022;-62
2023/11/04 04:15:53;;;;;;;4.63;1.60;;;6.80;99.90;;;;;;5012721;28;20029;-63
2023/11/04 04:18:19;;;;;;;6.88;1.80;;;6.80;99.90;;;;;;5012811;28;20377;-62
2023/11/04 04:20:44;;;;;;;7.18;2.20;;;6.80;99.90;;;;;;5013040;28;20095;-62
2023/11/04 04:23:10;;;;;;;9.70;1.88;;;6.80;99.90;;;;;;5013063;28;20025;-62
2023/11/04 04:25:37;;;;;;;9.05;1.88;;;6.80;99.90;;;;;;5007739;28;20034;-62
2023/11/04 04:28:03;;;;;;;3.05;1.20;;;6.80;99.90;;;;;;5009498;28;20507;-62
2023/11/04 04:30:29;;;;;;;4.57;1.48;;;6.80;99.90;;;;;;5012599;28;20029;-62
2023/11/04 04:32:54;;;;;;;7.28;2.25;;;6.80;99.90;;;;;;5012464;28;20032;-62
2023/11/04 04:35:20;;;;;;;2.33;1.27;;;6.80;99.90;;;;;;5012015;28;20026;-62
2023/11/04 04:37:45;;;;;;;9.45;1.77;;;6.90;99.90;;;;;;5011684;28;20328;-63
2023/11/04 04:40:11;;;;;;;9.02;1.55;;;6.90;99.90;;;;;;5011120;28;20387;-62
2023/11/04 04:42:36;;;;;;;6.82;1.90;;;6.90;99.90;;;;;;5012387;28;20380;-62
2023/11/04 04:45:02;;;;;;;7.40;1.40;;;6.90;99.90;;;;;;5007529;28;20057;-62
2023/11/04 04:47:28;;;;;;;4.47;1.65;;;6.90;99.90;;;;;;5007854;28;20504;-62
2023/11/04 04:49:53;;;;;;;8.10;2.85;;;6.90;99.90;;;;;;5008329;28;20211;-61
2023/11/04 04:52:19;;;;;;;5.30;1.48;;;6.90;99.90;;;;;;5012087;28;20419;-62
2023/11/04 04:54:44;;;;;;;5.80;1.55;;;6.90;99.90;;;;;;5011557;28;20376;-61
2023/11/04 04:57:10;;;;;;;5.88;2.15;;;6.90;99.90;;;;;;5011947;28;20026;-62
2023/11/04 04:59:36;;;;;;;4.68;2.33;;;6.90;99.90;;;;;;5011965;28;20087;-62
2023/11/04 05:02:04;;;;;;;6.55;1.98;;;6.90;99.90;;;;;;5007426;28;20030;-62
2023/11/04 05:04:29;;;;;;;9.32;1.85;;;7.00;99.90;;;;;;4999335;28;20034;-62
2023/11/04 05:06:56;;;;;;;5.47;1.75;;;7.00;99.90;;;;;;4994717;28;20061;-61
2023/11/04 05:09:21;;;;;;;3.05;1.60;;;7.00;99.90;;;;;;5004265;28;20022;-62
2023/11/04 05:11:47;;;;;;;2.38;1.27;;;7.00;99.90;;;;;;5003599;28;20331;-61
2023/11/04 05:14:12;;;;;;;4.45;2.00;;;7.00;99.90;;;;;;5004276;28;20018;-61
2023/11/04 05:16:38;;;;;;;4.07;1.45;;;7.00;99.90;;;;;;5000906;28;20022;-61
2023/11/04 05:19:04;;;;;;;2.58;1.48;;;7.00;99.90;;;;;;5003285;28;20054;-61
2023/11/04 05:21:29;;;;;;;5.45;1.70;;;6.90;99.90;;;;;;5001106;28;20014;-61
2023/11/04 05:23:55;;;;;;;4.10;1.55;;;6.90;99.90;;;;;;5001698;28;20084;-61
2023/11/04 05:26:22;;;;;;;3.17;1.50;;;6.90;99.90;;;;;;5002914;28;20026;-61
2023/11/04 05:28:47;;;;;;;6.35;1.70;;;6.90;99.90;;;;;;5002073;28;20030;-61
2023/11/04 05:31:13;;;;;;;6.03;1.45;;;6.90;99.90;;;;;;5005505;28;20069;-61
2023/11/04 05:33:38;;;;;;;5.32;1.50;;;6.90;99.90;;;;;;5001704;28;20043;-61
2023/11/04 05:36:04;;;;;;;6.80;1.88;;;6.90;99.90;;;;;;5003023;28;20018;-62
2023/11/04 05:38:32;;;;;;;3.42;1.80;;;6.90;99.90;;;;;;5002613;28;20053;-61
2023/11/04 05:40:58;;;;;;;2.13;1.30;;;6.80;99.90;;;;;;5001671;28;20067;-62
2023/11/04 05:43:25;;;;;;;2.72;1.45;;;6.90;99.90;;;;;;5001135;28;20428;-62
2023/11/04 05:45:51;;;;;;;5.13;2.40;;;6.90;99.90;;;;;;4995984;28;20034;-60
2023/11/04 05:48:19;;;;;;;4.72;1.85;;;6.90;99.90;;;;;;5003787;28;20160;-61
2023/11/04 05:50:45;;;;;;;4.28;1.40;;;6.90;99.90;;;;;;4998159;28;20022;-61
2023/11/04 05:53:10;;;;;;;8.07;1.65;;;7.00;99.90;;;;;;4998299;28;20045;-61
2023/11/04 05:55:36;;;;;;;4.82;1.55;;;6.90;99.90;;;;;;5010637;28;20034;-61
2023/11/04 05:58:02;;;;;;;3.08;1.70;;;7.00;99.90;;;;;;5010906;28;20507;-61
2023/11/04 06:00:28;;;;;;;4.97;1.50;;;7.00;99.90;;;;;;5010864;28;20038;-61
2023/11/04 06:02:53;;;;;;;6.93;1.67;;;7.00;99.90;;;;;;5010891;28;20033;-61
2023/11/04 06:05:19;;;;;;;2.78;1.63;;;7.00;99.90;;;;;;5010476;28;20041;-61
2023/11/04 06:07:44;;;;;;;3.40;1.40;;;7.00;99.90;;;;;;5011318;28;20038;-61
2023/11/04 06:10:11;;;;;;;3.63;1.65;;;7.10;99.90;;;;;;5010779;28;20064;-61
2023/11/04 06:12:37;;;;;;;3.60;1.88;;;7.10;99.90;;;;;;5010444;28;20026;-62
2023/11/04 06:15:04;;;;;;;6.10;1.92;;;7.10;99.90;;;;;;5010532;28;20095;-62
2023/11/04 06:17:29;;;;;;;3.00;1.90;;;7.10;99.90;;;;;;5010894;28;20018;-62
2023/11/04 06:19:56;;;;;;;4.28;1.70;;;7.10;99.90;;;;;;5010713;28;20105;-62
2023/11/04 06:22:22;;;;;;;5.10;2.40;;;7.10;99.90;;;;;;5010372;28;20085;-62
2023/11/04 06:24:48;;;;;;;2.53;1.38;;;7.10;99.90;;;;;;5009980;28;20534;-62
2023/11/04 06:27:13;;;;;;;3.50;1.85;;;7.20;99.90;;;;;;5010259;28;20093;-62
2023/11/04 06:29:39;;;;;;;2.30;1.50;;;7.20;99.90;;;;;;5010143;28;20029;-62
2023/11/04 06:32:05;;;;;;;7.40;1.52;;;7.20;99.90;;;;;;5010208;28;20025;-62
2023/11/04 06:34:30;;;;;;;1.50;1.20;;;7.30;99.90;;;;;;5009883;28;20026;-62
2023/11/04 06:36:56;;;;;;;4.60;1.85;;;7.20;99.90;;;;;;5010419;28;20105;-63
2023/11/04 06:39:21;;;;;;;4.88;1.95;;;7.20;99.90;;;;;;5010439;28;20068;-62
2023/11/04 06:41:48;;;;;;;4.30;1.33;;;7.20;99.90;;;;;;5010015;28;20053;-62
2023/11/04 06:44:13;;;;;;;2.83;1.40;;;7.20;99.90;;;;;;5007581;28;20566;-61
2023/11/04 06:46:45;;;;;;;3.30;1.40;;;7.20;99.90;;;;;;5004324;28;20049;-62
2023/11/04 06:49:10;;;;;;;6.15;1.63;;;7.20;99.90;;;;;;5009977;28;20030;-62
2023/11/04 06:51:36;;;;;;;3.00;1.65;;;7.20;99.90;;;;;;5009898;28;20041;-62
2023/11/04 06:54:01;;;;;;;4.13;1.70;;;7.20;99.90;;;;;;5006305;28;20109;-62
2023/11/04 06:56:30;;;;;;;5.82;1.77;;;7.20;99.90;;;;;;5002973;28;20148;-62
2023/11/04 06:58:56;;;;;;;4.25;1.77;;;7.30;99.90;;;;;;5010256;28;20094;-62
2023/11/04 07:01:21;;;;;;;2.83;1.60;;;7.30;99.90;;;;;;5009072;28;20131;-61
2023/11/04 07:03:47;;;;;;;4.88;1.38;;;7.30;99.90;;;;;;5010314;28;20060;-63
2023/11/04 07:06:14;;;;;;;3.00;1.70;;;7.40;99.90;;;;;;5009905;28;20109;-63
2023/11/04 07:08:39;;;;;;;3.70;1.60;;;7.40;99.90;;;;;;5010165;28;20030;-62
2023/11/04 07:11:05;;;;;;;3.33;1.38;;;7.40;99.90;;;;;;5009783;28;20048;-63
2023/11/04 07:13:30;;;;;;;4.63;1.48;;;7.40;99.90;;;;;;5009538;28;20062;-63
2023/11/04 07:15:59;;;;;;;2.35;1.63;;;7.40;99.90;;;;;;5001619;28;20022;-63
2023/11/04 07:18:25;;;;;;;5.22;2.05;;;7.40;99.90;;;;;;4997041;28;20472;-63
2023/11/04 07:20:50;;;;;;;8.73;2.75;;;7.40;99.90;;;;;;5005192;28;20071;-63
2023/11/04 07:23:17;;;;;;;3.63;1.10;;;7.50;99.90;;;;;;5009422;28;20479;-63
2023/11/04 07:25:44;;;;;;;2.72;1.25;;;7.50;99.90;;;;;;5008899;28;20120;-64
2023/11/04 07:28:10;;;;;;;3.50;1.30;;;7.50;99.90;;;;;;5009553;28;20037;-63
2023/11/04 07:30:36;;;;;;;2.83;1.60;;;7.50;99.90;;;;;;5009628;28;20045;-63
2023/11/04 07:33:01;;;;;;;2.58;1.58;;;7.60;99.90;;;;;;5009232;28;20037;-63
2023/11/04 07:35:27;;;;;;;8.90;1.83;;;7.60;99.90;;;;;;5003829;28;20450;-64
2023/11/04 07:37:53;;;;;;;4.43;1.65;;;7.60;99.90;;;;;;5004151;28;20069;-63
2023/11/04 07:40:19;;;;;;;3.97;1.83;;;7.60;99.90;;;;;;5009090;28;20104;-63
2023/11/04 07:42:45;;;;;;;1.58;1.13;;;7.70;99.90;;;;;;5009380;28;20073;-63
2023/11/04 07:45:11;;;;;;;2.72;1.13;;;7.70;99.90;;;;;;5008715;28;20064;-63
2023/11/04 07:47:40;;;;;;;1.80;1.27;;;7.80;99.90;;;;;;5008480;28;20065;-63
2023/11/04 07:50:07;;;;;;;1.83;1.25;;;7.80;99.90;;;;;;5005568;28;20026;-63
2023/11/04 07:52:33;;;;;;;3.80;1.20;;;7.80;99.90;;;;;;5008934;28;20092;-63
2023/11/04 07:54:58;;;;;;;1.90;1.17;;;7.90;99.90;;;;;;5008574;28;20064;-63
2023/11/04 07:57:24;;;;;;;4.45;1.10;;;7.90;99.90;;;;;;5009087;28;20028;-63
2023/11/04 07:59:49;;;;;;;3.70;1.35;;;8.00;99.90;;;;;;5009463;28;20391;-63
2023/11/04 08:02:15;;;;;;;2.70;1.30;;;8.00;99.90;;;;;;5009317;28;20483;-63
2023/11/04 08:04:40;;;;;;;2.58;1.05;;;8.00;99.90;;;;;;5008402;28;20114;-64
2023/11/04 08:07:09;;;;;;;3.42;1.27;;;8.10;99.90;;;;;;5008883;28;20058;-64
2023/11/04 08:09:34;;;;;;;1.55;1.23;;;8.10;99.90;;;;;;5009068;28;20045;-63
2023/11/04 08:12:00;;;;;;;6.45;1.17;;;8.20;99.90;;;;;;5009177;28;20491;-63
2023/11/04 08:14:26;;;;;;;1.98;1.42;;;8.20;99.90;;;;;;5008687;28;20022;-63
2023/11/04 08:16:51;;;;;;;4.93;1.20;;;8.20;99.90;;;;;;5009337;28;20030;-63
2023/11/04 08:19:17;;;;;;;2.42;1.33;;;8.40;99.90;;;;;;5009336;28;20061;-62
2023/11/04 08:21:43;;;;;;;5.82;1.20;;;8.40;99.90;;;;;;5009068;28;20500;-62
2023/11/04 08:24:08;;;;;;;4.38;0.80;;;8.50;99.90;;;;;;5008416;28;20061;-63
2023/11/04 08:26:39;;;;;;;1.83;1.17;;;8.70;99.90;;;;;;5008848;28;20064;-63
2023/11/04 08:29:05;;;;;;;2.55;1.17;;;8.80;99.90;;;;;;5008774;28;20052;-63
2023/11/04 08:31:30;;;;;;;1.70;0.80;;;9.00;99.90;;;;;;5008623;28;20476;-63
2023/11/04 08:33:56;;;;;;;2.53;0.90;;;9.10;99.90;;;;;;5008542;28;20056;-63
2023/11/04 08:36:22;;;;;;;1.77;1.05;;;9.20;99.90;;;;;;5006827;28;20030;-63
2023/11/04 08:38:47;;;;;;;2.45;1.55;;;9.40;99.90;;;;;;5008729;28;20427;-63
2023/11/04 08:41:13;;;;;;;2.10;1.45;;;9.50;99.90;;;;;;5008801;28;20134;-63
2023/11/04 08:43:38;;;;;;;2.13;1.40;;;9.60;99.90;;;;;;5003832;28;20680;-62
2023/11/04 08:46:04;;;;;;;1.50;1.08;;;9.60;99.90;;;;;;5005369;28;20026;-63
2023/11/04 08:48:30;;;;;;;1.27;0.93;;;9.60;99.90;;;;;;5007149;28;20017;-63
2023/11/04 08:50:55;;;;;;;0.65;0.65;;;9.60;99.90;;;;;;5008370;28;20014;-64
2023/11/04 08:53:21;;;;;;;1.13;0.88;;;9.60;99.90;;;;;;5008748;28;20061;-63
2023/11/04 08:55:47;;;;;;;0.98;0.75;;;9.60;99.90;;;;;;5003368;28;20054;-63
2023/11/04 08:58:12;;;;;;;1.10;1.00;;;9.70;99.90;;;;;;5007973;28;20483;-63
2023/11/04 09:00:38;;;;;;;1.35;0.93;;;9.70;99.90;;;;;;5012241;28;20084;-63
2023/11/04 09:03:03;;;;;;;1.55;0.95;;;9.90;99.90;;;;;;5010895;28;20026;-63
2023/11/04 09:05:29;;;;;;;1.65;0.90;;;9.90;99.90;;;;;;5012407;28;20096;-63
2023/11/04 09:07:54;;;;;;;0.80;0.80;;;9.90;99.90;;;;;;5011208;28;20402;-63
2023/11/04 09:10:20;;;;;;;2.20;0.80;;;10.00;99.90;;;;;;5012239;28;20033;-63
2023/11/04 09:12:46;;;;;;;3.78;1.30;;;10.10;99.90;;;;;;5012192;28;20113;-63
2023/11/04 09:15:11;;;;;;;1.70;1.10;;;10.20;99.90;;;;;;5011367;28;20036;-63
2023/11/04 09:17:38;;;;;;;1.35;1.05;;;10.20;99.90;;;;;;5000111;28;20023;-63
2023/11/04 09:20:05;;;;;;;1.73;0.80;;;10.20;99.90;;;;;;5000740;28;20048;-63
2023/11/04 09:22:31;;;;;;;1.70;1.05;;;10.20;99.90;;;;;;5008870;28;20083;-62
2023/11/04 09:24:57;;;;;;;2.63;0.90;;;10.30;99.90;;;;;;5006864;28;20030;-62
2023/11/04 09:27:22;;;;;;;1.55;0.90;;;10.40;99.90;;;;;;5011096;28;20037;-62
2023/11/04 09:29:48;;;;;;;1.73;1.00;;;10.40;99.90;;;;;;5011279;28;20486;-62
2023/11/04 09:32:13;;;;;;;1.35;0.90;;;10.60;99.90;;;;;;5010680;28;20175;-63
2023/11/04 09:34:39;;;;;;;1.45;1.08;;;10.80;99.90;;;;;;4995457;28;20107;-63
2023/11/04 09:37:04;;;;;;;2.47;0.80;;;11.00;99.90;;;;;;5006952;28;20501;-64
2023/11/04 09:39:30;;;;;;;1.65;0.70;;;11.50;99.90;;;;;;5012350;28;20044;-64
2023/11/04 09:41:56;;;;;;;0.68;0.55;;;12.70;99.90;;;;;;5008744;28;20052;-64
2023/11/04 09:44:22;;;;;;;0.88;0.65;;;14.70;97.90;;;;;;4990950;28;20428;-64
2023/11/04 09:46:48;;;;;;;1.95;0.88;;;15.60;94.40;;;;;;4991034;28;20034;-64
2023/11/04 09:49:14;;;;;;;1.65;0.77;;;16.50;93.90;;;;;;4990973;28;20077;-65
2023/11/04 09:51:40;;;;;;;1.30;0.90;;;17.30;91.40;;;;;;4990896;28;20042;-64
2023/11/04 09:54:09;;;;;;;0.80;0.75;;;16.50;91.40;;;;;;4990787;28;20023;-62
2023/11/04 09:56:35;;;;;;;1.55;0.77;;;16.60;90.90;;;;;;4991309;28;20048;-65
2023/11/04 09:59:00;;;;;;;2.97;0.90;;;16.30;91.50;;;;;;4991029;28;20500;-64
2023/11/04 10:01:27;;;;;;;2.03;1.23;;;15.40;91.90;;;;;;5006018;28;20018;-63
2023/11/04 10:03:53;;;;;;;1.38;1.05;;;14.10;93.40;;;;;;4989768;28;20046;-64
2023/11/04 10:06:18;;;;;;;3.00;1.05;;;13.40;95.30;;;;;;4988944;28;20402;-64
2023/11/04 10:08:44;;;;;;;1.90;0.88;;;13.10;96.20;;;;;;4989318;28;20102;-64
2023/11/04 10:11:10;;;;;;;1.45;0.77;;;13.70;96.30;;;;;;4988875;28;20465;-64
2023/11/04 10:13:36;;;;;;;1.13;0.60;;;14.60;94.60;;;;;;4989422;28;20122;-62
2023/11/04 10:16:03;;;;;;;1.45;0.93;;;14.50;94.60;;;;;;4988627;28;20027;-62
2023/11/04 10:18:30;;;;;;;2.25;0.82;;;14.30;94.40;;;;;;4989597;28;20022;-62
2023/11/04 10:20:56;;;;;;;2.45;1.02;;;14.10;94.00;;;;;;5002082;28;20022;-62
2023/11/04 10:23:21;;;;;;;3.72;0.80;;;14.90;94.40;;;;;;5010052;28;20132;-62
2023/11/04 10:25:47;;;;;;;2.15;0.90;;;15.20;92.80;;;;;;5010251;28;20030;-64
2023/11/04 10:28:12;;;;;;;1.05;0.70;;;15.90;92.40;;;;;;5003608;28;20022;-64
2023/11/04 10:30:38;;;;;;;1.15;0.98;;;15.40;92.60;;;;;;4996892;28;20323;-64
2023/11/04 10:33:08;;;;;;;2.80;0.65;;;15.40;93.00;;;;;;4990256;28;20026;-63
2023/11/04 10:35:34;;;;;;;2.45;0.77;;;16.30;92.10;;;;;;4990035;28;20074;-63
2023/11/04 10:38:05;;;;;;;2.47;0.77;;;16.30;91.80;;;;;;4990354;28;20027;-64
2023/11/04 10:40:31;;;;;;;0.68;0.60;;;16.10;91.60;;;;;;4990605;28;20211;-63
2023/11/04 10:43:04;;;;;;;1.15;0.90;;;15.70;91.60;;;;;;4990311;28;20058;-63
2023/11/04 10:45:56;;;;;;;1.10;0.80;;;16.10;91.50;;;;;;5002198;28;20038;-64
2023/11/04 10:48:35;;;;;;;1.45;0.70;;;17.20;90.20;;;;;;5009815;28;20026;-64
2023/11/04 10:51:18;;;;;;;1.00;0.80;;;18.30;86.20;;;;;;5009700;28;20026;-64
2023/11/04 10:53:59;;;;;;;4.80;1.10;;;18.20;86.60;;;;;;5009525;28;20083;-65
2023/11/04 10:56:38;;;;;;;0.93;0.77;;;19.20;85.00;;;;;;5009536;28;20049;-63
2023/11/04 10:59:38;;;;;;;1.58;0.90;;;19.50;83.10;;;;;;5005495;28;20515;-64
2023/11/04 11:02:06;;;;;;;1.20;0.80;;;17.80;82.50;;;;;;5009786;28;20021;-64
2023/11/04 11:04:34;;;;;;;1.17;0.80;;;16.50;87.40;;;;;;5009330;28;20022;-64
2023/11/04 11:07:00;;;;;;;1.35;0.90;;;15.70;89.20;;;;;;5009478;28;20459;-64
2023/11/04 11:09:26;;;;;;;2.80;0.50;;;15.20;90.90;;;;;;5009615;28;20112;-64
2023/11/04 11:12:05;;;;;;;3.97;0.82;;;14.40;91.60;;;;;;5005265;28;20034;-64
2023/11/04 11:14:32;;;;;;;1.30;0.60;;;14.20;92.50;;;;;;4994711;28;20158;-64
2023/11/04 11:16:59;;;;;;;3.13;1.00;;;15.50;91.90;;;;;;4992628;28;20102;-64
2023/11/04 11:19:25;;;;;;;0.77;0.68;;;16.80;89.00;;;;;;4998793;28;20032;-65
2023/11/04 11:21:50;;;;;;;0.70;0.70;;;17.50;87.80;;;;;;4999674;28;20042;-64
2023/11/04 11:24:22;;;;;;;1.15;0.55;;;17.50;87.10;;;;;;5001499;28;20022;-64
2023/11/04 11:26:57;;;;;;;2.53;0.73;;;16.80;87.20;;;;;;5001117;28;20037;-63
2023/11/04 11:29:24;;;;;;;2.03;0.90;;;16.30;88.80;;;;;;5010022;28;20022;-64
2023/11/04 11:31:51;;;;;;;1.75;0.90;;;16.00;89.80;;;;;;5009872;28;20101;-65
2023/11/04 11:34:20;;;;;;;0.77;0.70;;;15.80;89.50;;;;;;5009665;28;20021;-64
2023/11/04 11:36:47;;;;;;;0.85;0.55;;;16.00;90.20;;;;;;5005608;28;20019;-64
2023/11/04 11:39:13;;;;;;;2.80;1.10;;;15.90;90.60;;;;;;5023333;28;20014;-64
2023/11/04 11:41:39;;;;;;;0.80;0.60;;;16.10;89.00;;;;;;4998694;28;20046;-64
2023/11/04 11:44:08;;;;;;;0.98;0.75;;;16.50;89.70;;;;;;4989253;28;20535;-64
2023/11/04 11:46:33;;;;;;;1.35;0.80;;;17.30;85.40;;;;;;4989907;28;20449;-63
2023/11/04 11:48:59;;;;;;;1.50;1.00;;;17.10;86.80;;;;;;4989777;28;20054;-64
2023/11/04 11:51:25;;;;;;;1.67;0.85;;;16.70;87.00;;;;;;4989704;28;20057;-65
2023/11/04 11:53:51;;;;;;;0.73;0.60;;;16.80;87.10;;;;;;4996233;28;20364;-65
2023/11/04 11:56:16;;;;;;;1.58;0.93;;;16.90;86.60;;;;;;5004199;28;20025;-66
2023/11/04 11:58:42;;;;;;;1.25;0.60;;;16.60;88.00;;;;;;5009176;28;20105;-64
2023/11/04 12:01:08;;;;;;;0.75;0.70;;;15.90;88.50;;;;;;5009488;28;20022;-65
2023/11/04 12:03:35;;;;;;;2.85;0.65;;;15.60;90.50;;;;;;5009496;28;20044;-65
2023/11/04 12:06:02;;;;;;;2.17;0.80;;;14.90;90.90;;;;;;5008848;28;20502;-64
2023/11/04 12:08:27;;;;;;;2.80;0.95;;;14.50;91.50;;;;;;5004751;28;20066;-64
2023/11/04 12:10:54;;;;;;;1.23;0.57;;;14.00;92.00;;;;;;5004811;28;20060;-63
2023/11/04 12:13:20;;;;;;;1.63;1.00;;;13.50;93.20;;;;;;5008743;28;20022;-63
2023/11/04 12:15:46;;;;;;;2.20;1.10;;;13.10;93.70;;;;;;5008573;28;20045;-64
2023/11/04 12:18:13;;;;;;;2.05;1.15;;;12.90;94.20;;;;;;5008892;28;20057;-64
2023/11/04 12:20:40;;;;;;;3.53;0.90;;;12.60;94.40;;;;;;5009094;28;20083;-64
2023/11/04 12:23:08;;;;;;;1.52;0.93;;;12.60;94.90;;;;;;5008885;28;20108;-64
2023/11/04 12:25:35;;;;;;;3.30;1.00;;;12.60;95.20;;;;;;4998482;28;20483;-64
2023/11/04 12:28:01;;;;;;;1.30;0.82;;;12.80;95.60;;;;;;4997241;28;20117;-64
2023/11/04 12:30:28;;;;;;;3.33;0.95;;;13.00;95.10;;;;;;4998448;28;20537;-64
2023/11/04 12:32:56;;;;;;;2.75;0.90;;;13.20;95.40;;;;;;5001835;28;20096;-64
2023/11/04 12:35:22;;;;;;;1.33;1.13;;;13.50;94.80;;;;;;5002550;28;20085;-64
2023/11/04 12:37:49;;;;;;;2.70;1.50;;;13.40;94.70;;;;;;5011750;28;20033;-62
2023/11/04 12:40:17;;;;;;;2.60;1.20;;;13.30;95.00;;;;;;5012974;28;20482;-62
2023/11/04 12:42:44;;;;;;;2.00;1.23;;;13.40;95.10;;;;;;5007705;28;20038;-63
2023/11/04 12:45:11;;;;;;;1.23;0.73;;;13.60;94.50;;;;;;5010187;28;20084;-62
2023/11/04 12:47:38;;;;;;;2.00;0.75;;;13.50;94.40;;;;;;5012208;28;20113;-62